sensor_id;sensor_type;location;lat;lon;timestamp;P1;durP1;ratioP1;P2;durP2;ratioP2
75090;SDS011;63674;48.048;8.306;2024-03-22T00:00:32;8.43;;;4.10;;
75090;SDS011;63674;48.048;8.306;2024-03-22T00:03:00;9.35;;;3.60;;
75090;SDS011;63674;48.048;8.306;2024-03-22T00:05:26;9.65;;;4.15;;
75090;SDS011;63674;48.048;8.306;2024-03-22T00:07:55;8.70;;;3.50;;
75090;SDS011;63674;48.048;8.306;2024-03-22T00:10:22;6.95;;;3.58;;
75090;SDS011;63674;48.048;8.306;2024-03-22T00:12:49;9.20;;;3.40;;
75090;SDS011;63674;48.048;8.306;2024-03-22T00:15:16;8.27;;;4.55;;
75090;SDS011;63674;48.048;8.306;2024-03-22T00:17:44;10.00;;;4.00;;
75090;SDS011;63674;48.048;8.306;2024-03-22T00:20:11;8.23;;;3.92;;
75090;SDS011;63674;48.048;8.306;2024-03-22T00:22:38;9.65;;;4.57;;
75090;SDS011;63674;48.048;8.306;2024-03-22T00:25:06;11.03;;;4.83;;
75090;SDS011;63674;48.048;8.306;2024-03-22T00:27:34;8.15;;;3.85;;
75090;SDS011;63674;48.048;8.306;2024-03-22T00:30:01;9.45;;;4.30;;
75090;SDS011;63674;48.048;8.306;2024-03-22T00:32:29;7.82;;;3.95;;
75090;SDS011;63674;48.048;8.306;2024-03-22T00:34:56;8.25;;;3.95;;
75090;SDS011;63674;48.048;8.306;2024-03-22T00:37:23;10.63;;;4.00;;
75090;SDS011;63674;48.048;8.306;2024-03-22T00:39:50;8.07;;;4.15;;
75090;SDS011;63674;48.048;8.306;2024-03-22T00:42:19;10.10;;;4.10;;
75090;SDS011;63674;48.048;8.306;2024-03-22T00:44:45;9.02;;;4.32;;
75090;SDS011;63674;48.048;8.306;2024-03-22T00:47:13;9.68;;;4.57;;
75090;SDS011;63674;48.048;8.306;2024-03-22T00:49:39;8.07;;;3.70;;
75090;SDS011;63674;48.048;8.306;2024-03-22T00:52:07;8.32;;;3.80;;
75090;SDS011;63674;48.048;8.306;2024-03-22T00:54:34;10.60;;;4.32;;
75090;SDS011;63674;48.048;8.306;2024-03-22T00:57:04;9.35;;;3.95;;
75090;SDS011;63674;48.048;8.306;2024-03-22T00:59:32;8.52;;;3.60;;
75090;SDS011;63674;48.048;8.306;2024-03-22T01:01:59;8.73;;;3.93;;
75090;SDS011;63674;48.048;8.306;2024-03-22T01:04:26;8.77;;;3.55;;
75090;SDS011;63674;48.048;8.306;2024-03-22T01:06:54;12.88;;;4.50;;
75090;SDS011;63674;48.048;8.306;2024-03-22T01:09:20;8.38;;;3.50;;
75090;SDS011;63674;48.048;8.306;2024-03-22T01:11:48;9.90;;;3.90;;
75090;SDS011;63674;48.048;8.306;2024-03-22T01:14:15;9.60;;;4.63;;
75090;SDS011;63674;48.048;8.306;2024-03-22T01:16:43;9.68;;;4.45;;
75090;SDS011;63674;48.048;8.306;2024-03-22T01:19:10;7.70;;;4.13;;
75090;SDS011;63674;48.048;8.306;2024-03-22T01:21:37;9.80;;;4.20;;
75090;SDS011;63674;48.048;8.306;2024-03-22T01:24:04;8.57;;;4.20;;
75090;SDS011;63674;48.048;8.306;2024-03-22T01:26:32;11.23;;;4.60;;
75090;SDS011;63674;48.048;8.306;2024-03-22T01:28:59;8.20;;;4.45;;
75090;SDS011;63674;48.048;8.306;2024-03-22T01:31:26;12.00;;;4.43;;
75090;SDS011;63674;48.048;8.306;2024-03-22T01:33:54;11.52;;;3.95;;
75090;SDS011;63674;48.048;8.306;2024-03-22T01:36:22;9.52;;;4.43;;
75090;SDS011;63674;48.048;8.306;2024-03-22T01:38:48;8.43;;;4.20;;
75090;SDS011;63674;48.048;8.306;2024-03-22T01:41:16;8.15;;;4.03;;
75090;SDS011;63674;48.048;8.306;2024-03-22T01:43:43;9.35;;;4.00;;
75090;SDS011;63674;48.048;8.306;2024-03-22T01:46:11;8.88;;;3.90;;
75090;SDS011;63674;48.048;8.306;2024-03-22T01:48:37;8.68;;;4.13;;
75090;SDS011;63674;48.048;8.306;2024-03-22T01:51:07;8.73;;;3.70;;
75090;SDS011;63674;48.048;8.306;2024-03-22T01:53:35;8.75;;;4.00;;
75090;SDS011;63674;48.048;8.306;2024-03-22T01:56:04;9.85;;;4.10;;
75090;SDS011;63674;48.048;8.306;2024-03-22T01:58:32;10.95;;;4.57;;
75090;SDS011;63674;48.048;8.306;2024-03-22T02:01:00;8.50;;;4.10;;
75090;SDS011;63674;48.048;8.306;2024-03-22T02:03:27;9.43;;;3.93;;
75090;SDS011;63674;48.048;8.306;2024-03-22T02:06:14;9.15;;;4.22;;
75090;SDS011;63674;48.048;8.306;2024-03-22T02:08:59;11.02;;;4.00;;
75090;SDS011;63674;48.048;8.306;2024-03-22T02:11:46;8.13;;;3.58;;
75090;SDS011;63674;48.048;8.306;2024-03-22T02:14:31;9.93;;;4.45;;
75090;SDS011;63674;48.048;8.306;2024-03-22T02:17:17;7.83;;;3.77;;
75090;SDS011;63674;48.048;8.306;2024-03-22T02:20:03;8.93;;;3.63;;
75090;SDS011;63674;48.048;8.306;2024-03-22T02:22:51;8.98;;;3.78;;
75090;SDS011;63674;48.048;8.306;2024-03-22T02:25:38;7.88;;;3.72;;
75090;SDS011;63674;48.048;8.306;2024-03-22T02:28:24;8.43;;;4.18;;
75090;SDS011;63674;48.048;8.306;2024-03-22T02:31:09;8.13;;;4.10;;
75090;SDS011;63674;48.048;8.306;2024-03-22T02:33:55;8.02;;;3.72;;
75090;SDS011;63674;48.048;8.306;2024-03-22T02:36:40;9.25;;;3.90;;
75090;SDS011;63674;48.048;8.306;2024-03-22T02:39:27;8.02;;;4.05;;
75090;SDS011;63674;48.048;8.306;2024-03-22T02:42:14;8.23;;;3.53;;
75090;SDS011;63674;48.048;8.306;2024-03-22T02:45:00;7.93;;;3.50;;
75090;SDS011;63674;48.048;8.306;2024-03-22T02:47:45;7.93;;;3.95;;
75090;SDS011;63674;48.048;8.306;2024-03-22T02:50:32;8.90;;;3.60;;
75090;SDS011;63674;48.048;8.306;2024-03-22T02:53:17;8.40;;;3.72;;
75090;SDS011;63674;48.048;8.306;2024-03-22T02:56:04;7.38;;;3.70;;
75090;SDS011;63674;48.048;8.306;2024-03-22T02:58:50;7.63;;;3.87;;
75090;SDS011;63674;48.048;8.306;2024-03-22T03:01:37;7.82;;;4.00;;
75090;SDS011;63674;48.048;8.306;2024-03-22T03:04:23;8.52;;;3.90;;
75090;SDS011;63674;48.048;8.306;2024-03-22T03:07:09;8.40;;;4.20;;
75090;SDS011;63674;48.048;8.306;2024-03-22T03:09:55;7.50;;;3.80;;
75090;SDS011;63674;48.048;8.306;2024-03-22T03:12:40;8.63;;;3.90;;
75090;SDS011;63674;48.048;8.306;2024-03-22T03:15:28;8.63;;;4.07;;
75090;SDS011;63674;48.048;8.306;2024-03-22T03:18:13;9.50;;;4.90;;
75090;SDS011;63674;48.048;8.306;2024-03-22T03:20:59;9.05;;;4.30;;
75090;SDS011;63674;48.048;8.306;2024-03-22T03:23:45;9.90;;;4.55;;
75090;SDS011;63674;48.048;8.306;2024-03-22T03:26:31;9.67;;;4.30;;
75090;SDS011;63674;48.048;8.306;2024-03-22T03:29:16;11.48;;;4.90;;
75090;SDS011;63674;48.048;8.306;2024-03-22T03:32:04;8.63;;;4.72;;
75090;SDS011;63674;48.048;8.306;2024-03-22T03:34:49;11.07;;;4.30;;
75090;SDS011;63674;48.048;8.306;2024-03-22T03:37:36;10.38;;;4.00;;
75090;SDS011;63674;48.048;8.306;2024-03-22T03:40:21;10.37;;;4.60;;
75090;SDS011;63674;48.048;8.306;2024-03-22T03:43:08;10.35;;;4.50;;
75090;SDS011;63674;48.048;8.306;2024-03-22T03:45:54;10.32;;;4.35;;
75090;SDS011;63674;48.048;8.306;2024-03-22T03:48:42;9.82;;;4.25;;
75090;SDS011;63674;48.048;8.306;2024-03-22T03:51:27;8.80;;;4.32;;
75090;SDS011;63674;48.048;8.306;2024-03-22T03:54:13;10.43;;;4.50;;
75090;SDS011;63674;48.048;8.306;2024-03-22T03:56:58;9.18;;;4.15;;
75090;SDS011;63674;48.048;8.306;2024-03-22T03:59:45;14.00;;;5.70;;
75090;SDS011;63674;48.048;8.306;2024-03-22T04:02:30;10.35;;;4.43;;
75090;SDS011;63674;48.048;8.306;2024-03-22T04:05:17;8.98;;;4.43;;
75090;SDS011;63674;48.048;8.306;2024-03-22T04:08:03;7.63;;;3.70;;
75090;SDS011;63674;48.048;8.306;2024-03-22T04:10:51;9.15;;;3.90;;
75090;SDS011;63674;48.048;8.306;2024-03-22T04:13:36;12.00;;;4.80;;
75090;SDS011;63674;48.048;8.306;2024-03-22T04:16:22;8.38;;;4.00;;
75090;SDS011;63674;48.048;8.306;2024-03-22T04:19:08;8.98;;;4.32;;
75090;SDS011;63674;48.048;8.306;2024-03-22T04:21:56;9.10;;;4.67;;
75090;SDS011;63674;48.048;8.306;2024-03-22T04:24:41;9.77;;;4.60;;
75090;SDS011;63674;48.048;8.306;2024-03-22T04:27:27;9.10;;;4.63;;
75090;SDS011;63674;48.048;8.306;2024-03-22T04:30:13;10.02;;;4.60;;
75090;SDS011;63674;48.048;8.306;2024-03-22T04:32:59;11.35;;;4.35;;
75090;SDS011;63674;48.048;8.306;2024-03-22T04:35:25;8.60;;;3.97;;
75090;SDS011;63674;48.048;8.306;2024-03-22T04:37:54;9.43;;;4.05;;
75090;SDS011;63674;48.048;8.306;2024-03-22T04:40:22;10.05;;;5.05;;
75090;SDS011;63674;48.048;8.306;2024-03-22T04:42:50;11.10;;;4.68;;
75090;SDS011;63674;48.048;8.306;2024-03-22T04:45:17;9.05;;;4.00;;
75090;SDS011;63674;48.048;8.306;2024-03-22T04:47:45;11.00;;;4.63;;
75090;SDS011;63674;48.048;8.306;2024-03-22T04:50:11;13.48;;;5.90;;
75090;SDS011;63674;48.048;8.306;2024-03-22T04:52:40;10.77;;;5.00;;
75090;SDS011;63674;48.048;8.306;2024-03-22T04:55:08;11.68;;;4.78;;
75090;SDS011;63674;48.048;8.306;2024-03-22T04:57:35;11.02;;;4.55;;
75090;SDS011;63674;48.048;8.306;2024-03-22T05:00:02;11.27;;;4.93;;
75090;SDS011;63674;48.048;8.306;2024-03-22T05:02:32;11.77;;;5.78;;
75090;SDS011;63674;48.048;8.306;2024-03-22T05:04:59;13.13;;;5.03;;
75090;SDS011;63674;48.048;8.306;2024-03-22T05:07:27;9.05;;;4.93;;
75090;SDS011;63674;48.048;8.306;2024-03-22T05:09:53;11.18;;;5.00;;
75090;SDS011;63674;48.048;8.306;2024-03-22T05:12:22;10.63;;;4.77;;
75090;SDS011;63674;48.048;8.306;2024-03-22T05:14:48;10.90;;;5.03;;
75090;SDS011;63674;48.048;8.306;2024-03-22T05:17:16;10.70;;;5.22;;
75090;SDS011;63674;48.048;8.306;2024-03-22T05:19:42;10.85;;;4.80;;
75090;SDS011;63674;48.048;8.306;2024-03-22T05:22:10;11.98;;;5.07;;
75090;SDS011;63674;48.048;8.306;2024-03-22T05:24:37;10.33;;;4.70;;
75090;SDS011;63674;48.048;8.306;2024-03-22T05:27:05;10.45;;;4.68;;
75090;SDS011;63674;48.048;8.306;2024-03-22T05:29:33;9.68;;;4.78;;
75090;SDS011;63674;48.048;8.306;2024-03-22T05:32:00;10.82;;;4.53;;
75090;SDS011;63674;48.048;8.306;2024-03-22T05:34:29;10.40;;;4.75;;
75090;SDS011;63674;48.048;8.306;2024-03-22T05:36:56;10.53;;;4.73;;
75090;SDS011;63674;48.048;8.306;2024-03-22T05:39:24;11.20;;;4.57;;
75090;SDS011;63674;48.048;8.306;2024-03-22T05:41:52;10.88;;;4.68;;
75090;SDS011;63674;48.048;8.306;2024-03-22T05:44:19;10.07;;;4.65;;
75090;SDS011;63674;48.048;8.306;2024-03-22T05:46:49;11.13;;;4.75;;
75090;SDS011;63674;48.048;8.306;2024-03-22T05:49:16;9.73;;;4.23;;
75090;SDS011;63674;48.048;8.306;2024-03-22T05:51:43;9.57;;;4.50;;
75090;SDS011;63674;48.048;8.306;2024-03-22T05:54:10;9.88;;;4.70;;
75090;SDS011;63674;48.048;8.306;2024-03-22T05:56:37;9.93;;;4.40;;
75090;SDS011;63674;48.048;8.306;2024-03-22T05:59:04;8.52;;;4.30;;
75090;SDS011;63674;48.048;8.306;2024-03-22T06:01:31;10.63;;;4.20;;
75090;SDS011;63674;48.048;8.306;2024-03-22T06:03:59;13.00;;;4.28;;
75090;SDS011;63674;48.048;8.306;2024-03-22T06:06:27;10.57;;;4.30;;
75090;SDS011;63674;48.048;8.306;2024-03-22T06:08:54;9.32;;;3.80;;
75090;SDS011;63674;48.048;8.306;2024-03-22T06:11:25;10.05;;;4.53;;
75090;SDS011;63674;48.048;8.306;2024-03-22T06:13:51;8.83;;;4.67;;
75090;SDS011;63674;48.048;8.306;2024-03-22T06:16:19;10.40;;;4.30;;
75090;SDS011;63674;48.048;8.306;2024-03-22T06:18:46;9.27;;;4.28;;
75090;SDS011;63674;48.048;8.306;2024-03-22T06:21:15;10.15;;;4.60;;
75090;SDS011;63674;48.048;8.306;2024-03-22T06:23:47;8.95;;;4.50;;
75090;SDS011;63674;48.048;8.306;2024-03-22T06:26:15;8.57;;;4.67;;
75090;SDS011;63674;48.048;8.306;2024-03-22T06:28:42;8.93;;;4.30;;
75090;SDS011;63674;48.048;8.306;2024-03-22T06:31:10;10.40;;;5.25;;
75090;SDS011;63674;48.048;8.306;2024-03-22T06:33:37;10.30;;;5.00;;
75090;SDS011;63674;48.048;8.306;2024-03-22T06:36:04;11.10;;;4.80;;
75090;SDS011;63674;48.048;8.306;2024-03-22T06:38:33;11.57;;;4.67;;
75090;SDS011;63674;48.048;8.306;2024-03-22T06:41:00;9.90;;;4.50;;
75090;SDS011;63674;48.048;8.306;2024-03-22T06:43:27;12.68;;;4.80;;
75090;SDS011;63674;48.048;8.306;2024-03-22T06:45:54;11.25;;;5.00;;
75090;SDS011;63674;48.048;8.306;2024-03-22T06:48:21;9.77;;;5.00;;
75090;SDS011;63674;48.048;8.306;2024-03-22T06:50:48;9.80;;;4.67;;
75090;SDS011;63674;48.048;8.306;2024-03-22T06:53:15;9.40;;;4.13;;
75090;SDS011;63674;48.048;8.306;2024-03-22T06:55:44;12.32;;;3.88;;
75090;SDS011;63674;48.048;8.306;2024-03-22T06:58:10;9.20;;;4.30;;
75090;SDS011;63674;48.048;8.306;2024-03-22T07:00:38;15.68;;;4.72;;
75090;SDS011;63674;48.048;8.306;2024-03-22T07:03:04;10.47;;;4.40;;
75090;SDS011;63674;48.048;8.306;2024-03-22T07:05:32;12.85;;;4.72;;
75090;SDS011;63674;48.048;8.306;2024-03-22T07:07:58;10.13;;;4.32;;
75090;SDS011;63674;48.048;8.306;2024-03-22T07:10:26;11.32;;;4.07;;
75090;SDS011;63674;48.048;8.306;2024-03-22T07:12:55;9.07;;;4.32;;
75090;SDS011;63674;48.048;8.306;2024-03-22T07:15:23;9.27;;;4.10;;
75090;SDS011;63674;48.048;8.306;2024-03-22T07:17:49;10.05;;;3.53;;
75090;SDS011;63674;48.048;8.306;2024-03-22T07:20:17;7.57;;;3.55;;
75090;SDS011;63674;48.048;8.306;2024-03-22T07:22:44;6.95;;;3.10;;
75090;SDS011;63674;48.048;8.306;2024-03-22T07:25:12;8.95;;;2.97;;
75090;SDS011;63674;48.048;8.306;2024-03-22T07:27:38;6.93;;;3.37;;
75090;SDS011;63674;48.048;8.306;2024-03-22T07:30:08;8.95;;;3.50;;
75090;SDS011;63674;48.048;8.306;2024-03-22T07:32:35;8.30;;;3.15;;
75090;SDS011;63674;48.048;8.306;2024-03-22T07:35:03;9.75;;;3.33;;
75090;SDS011;63674;48.048;8.306;2024-03-22T07:37:32;6.30;;;3.10;;
75090;SDS011;63674;48.048;8.306;2024-03-22T07:40:00;8.73;;;3.40;;
75090;SDS011;63674;48.048;8.306;2024-03-22T07:42:28;8.98;;;3.30;;
75090;SDS011;63674;48.048;8.306;2024-03-22T07:44:56;8.73;;;3.67;;
75090;SDS011;63674;48.048;8.306;2024-03-22T07:47:23;7.75;;;3.47;;
75090;SDS011;63674;48.048;8.306;2024-03-22T07:49:52;6.20;;;2.97;;
75090;SDS011;63674;48.048;8.306;2024-03-22T07:52:19;10.17;;;3.10;;
75090;SDS011;63674;48.048;8.306;2024-03-22T07:54:46;9.65;;;3.50;;
75090;SDS011;63674;48.048;8.306;2024-03-22T07:57:13;7.80;;;3.58;;
75090;SDS011;63674;48.048;8.306;2024-03-22T07:59:41;9.70;;;4.10;;
75090;SDS011;63674;48.048;8.306;2024-03-22T08:02:09;9.27;;;3.70;;
75090;SDS011;63674;48.048;8.306;2024-03-22T08:04:38;9.33;;;3.70;;
75090;SDS011;63674;48.048;8.306;2024-03-22T08:07:04;9.40;;;3.35;;
75090;SDS011;63674;48.048;8.306;2024-03-22T08:09:32;8.55;;;3.53;;
75090;SDS011;63674;48.048;8.306;2024-03-22T08:11:59;6.70;;;3.03;;
75090;SDS011;63674;48.048;8.306;2024-03-22T08:14:26;9.18;;;3.75;;
75090;SDS011;63674;48.048;8.306;2024-03-22T08:16:53;8.07;;;3.20;;
75090;SDS011;63674;48.048;8.306;2024-03-22T08:19:20;7.32;;;3.38;;
75090;SDS011;63674;48.048;8.306;2024-03-22T08:21:48;7.15;;;3.13;;
75090;SDS011;63674;48.048;8.306;2024-03-22T08:24:16;6.25;;;2.65;;
75090;SDS011;63674;48.048;8.306;2024-03-22T08:26:44;7.55;;;3.70;;
75090;SDS011;63674;48.048;8.306;2024-03-22T08:29:12;9.77;;;3.30;;
75090;SDS011;63674;48.048;8.306;2024-03-22T08:31:40;8.88;;;3.50;;
75090;SDS011;63674;48.048;8.306;2024-03-22T08:34:08;8.57;;;3.50;;
75090;SDS011;63674;48.048;8.306;2024-03-22T08:36:34;8.52;;;3.47;;
75090;SDS011;63674;48.048;8.306;2024-03-22T08:39:04;6.28;;;3.30;;
75090;SDS011;63674;48.048;8.306;2024-03-22T08:41:32;6.47;;;2.87;;
75090;SDS011;63674;48.048;8.306;2024-03-22T08:44:00;7.47;;;2.67;;
75090;SDS011;63674;48.048;8.306;2024-03-22T08:46:26;6.32;;;3.00;;
75090;SDS011;63674;48.048;8.306;2024-03-22T08:48:53;6.53;;;2.72;;
75090;SDS011;63674;48.048;8.306;2024-03-22T08:51:20;6.90;;;3.20;;
75090;SDS011;63674;48.048;8.306;2024-03-22T08:53:48;5.90;;;2.33;;
75090;SDS011;63674;48.048;8.306;2024-03-22T08:56:16;7.43;;;3.00;;
75090;SDS011;63674;48.048;8.306;2024-03-22T08:58:43;7.20;;;2.83;;
75090;SDS011;63674;48.048;8.306;2024-03-22T09:01:10;5.38;;;2.55;;
75090;SDS011;63674;48.048;8.306;2024-03-22T09:03:37;7.25;;;2.45;;
75090;SDS011;63674;48.048;8.306;2024-03-22T09:06:04;6.60;;;2.50;;
75090;SDS011;63674;48.048;8.306;2024-03-22T09:08:32;6.30;;;2.38;;
75090;SDS011;63674;48.048;8.306;2024-03-22T09:10:59;6.05;;;2.70;;
75090;SDS011;63674;48.048;8.306;2024-03-22T09:13:28;5.57;;;2.10;;
75090;SDS011;63674;48.048;8.306;2024-03-22T09:15:58;7.35;;;2.25;;
75090;SDS011;63674;48.048;8.306;2024-03-22T09:18:25;6.50;;;2.00;;
75090;SDS011;63674;48.048;8.306;2024-03-22T09:20:52;5.45;;;1.90;;
75090;SDS011;63674;48.048;8.306;2024-03-22T09:23:21;5.38;;;2.20;;
75090;SDS011;63674;48.048;8.306;2024-03-22T09:25:48;4.95;;;2.08;;
75090;SDS011;63674;48.048;8.306;2024-03-22T09:28:16;5.78;;;2.60;;
75090;SDS011;63674;48.048;8.306;2024-03-22T09:30:44;7.43;;;2.37;;
75090;SDS011;63674;48.048;8.306;2024-03-22T09:33:13;7.55;;;2.42;;
75090;SDS011;63674;48.048;8.306;2024-03-22T09:35:39;5.88;;;2.30;;
75090;SDS011;63674;48.048;8.306;2024-03-22T09:38:07;5.80;;;1.80;;
75090;SDS011;63674;48.048;8.306;2024-03-22T09:40:33;7.18;;;2.42;;
75090;SDS011;63674;48.048;8.306;2024-03-22T09:43:02;6.87;;;1.90;;
75090;SDS011;63674;48.048;8.306;2024-03-22T09:45:29;6.00;;;2.40;;
75090;SDS011;63674;48.048;8.306;2024-03-22T09:48:00;5.68;;;2.13;;
75090;SDS011;63674;48.048;8.306;2024-03-22T09:50:27;6.65;;;2.40;;
75090;SDS011;63674;48.048;8.306;2024-03-22T09:52:56;5.78;;;2.22;;
75090;SDS011;63674;48.048;8.306;2024-03-22T09:55:22;7.00;;;2.70;;
75090;SDS011;63674;48.048;8.306;2024-03-22T09:57:50;5.78;;;2.40;;
75090;SDS011;63674;48.048;8.306;2024-03-22T10:00:19;6.95;;;2.35;;
75090;SDS011;63674;48.048;8.306;2024-03-22T10:02:48;4.90;;;2.10;;
75090;SDS011;63674;48.048;8.306;2024-03-22T10:05:17;6.28;;;1.98;;
75090;SDS011;63674;48.048;8.306;2024-03-22T10:07:45;6.57;;;1.67;;
75090;SDS011;63674;48.048;8.306;2024-03-22T10:10:11;5.80;;;1.80;;
75090;SDS011;63674;48.048;8.306;2024-03-22T10:12:39;4.78;;;1.80;;
75090;SDS011;63674;48.048;8.306;2024-03-22T10:15:06;5.93;;;2.17;;
75090;SDS011;63674;48.048;8.306;2024-03-22T10:17:35;6.03;;;1.80;;
75090;SDS011;63674;48.048;8.306;2024-03-22T10:20:01;5.03;;;1.80;;
75090;SDS011;63674;48.048;8.306;2024-03-22T10:22:33;4.65;;;1.95;;
75090;SDS011;63674;48.048;8.306;2024-03-22T10:24:59;5.53;;;1.90;;
75090;SDS011;63674;48.048;8.306;2024-03-22T10:27:27;4.80;;;1.63;;
75090;SDS011;63674;48.048;8.306;2024-03-22T10:29:54;5.20;;;1.83;;
75090;SDS011;63674;48.048;8.306;2024-03-22T10:32:22;4.47;;;1.43;;
75090;SDS011;63674;48.048;8.306;2024-03-22T10:34:50;6.43;;;1.70;;
75090;SDS011;63674;48.048;8.306;2024-03-22T10:37:18;5.35;;;1.85;;
75090;SDS011;63674;48.048;8.306;2024-03-22T10:39:47;5.25;;;1.65;;
75090;SDS011;63674;48.048;8.306;2024-03-22T10:42:19;5.35;;;1.88;;
75090;SDS011;63674;48.048;8.306;2024-03-22T10:44:46;4.30;;;1.57;;
75090;SDS011;63674;48.048;8.306;2024-03-22T10:47:13;5.95;;;1.80;;
75090;SDS011;63674;48.048;8.306;2024-03-22T10:49:43;4.30;;;1.60;;
75090;SDS011;63674;48.048;8.306;2024-03-22T10:52:15;4.68;;;1.70;;
75090;SDS011;63674;48.048;8.306;2024-03-22T10:54:43;6.38;;;1.52;;
75090;SDS011;63674;48.048;8.306;2024-03-22T10:57:14;6.13;;;1.80;;
75090;SDS011;63674;48.048;8.306;2024-03-22T10:59:42;4.93;;;1.40;;
75090;SDS011;63674;48.048;8.306;2024-03-22T11:02:10;5.13;;;1.30;;
75090;SDS011;63674;48.048;8.306;2024-03-22T11:04:37;6.55;;;1.52;;
75090;SDS011;63674;48.048;8.306;2024-03-22T11:07:05;4.40;;;1.75;;
75090;SDS011;63674;48.048;8.306;2024-03-22T11:09:31;4.50;;;1.40;;
75090;SDS011;63674;48.048;8.306;2024-03-22T11:12:00;5.32;;;1.55;;
75090;SDS011;63674;48.048;8.306;2024-03-22T11:14:29;5.40;;;1.42;;
75090;SDS011;63674;48.048;8.306;2024-03-22T11:16:57;3.83;;;1.27;;
75090;SDS011;63674;48.048;8.306;2024-03-22T11:19:23;4.00;;;1.20;;
75090;SDS011;63674;48.048;8.306;2024-03-22T11:21:51;3.80;;;1.10;;
75090;SDS011;63674;48.048;8.306;2024-03-22T11:24:17;4.05;;;1.10;;
75090;SDS011;63674;48.048;8.306;2024-03-22T11:26:44;4.50;;;1.27;;
75090;SDS011;63674;48.048;8.306;2024-03-22T11:29:14;4.97;;;1.17;;
75090;SDS011;63674;48.048;8.306;2024-03-22T11:31:41;4.90;;;1.33;;
75090;SDS011;63674;48.048;8.306;2024-03-22T11:34:08;4.93;;;1.47;;
75090;SDS011;63674;48.048;8.306;2024-03-22T11:36:37;4.32;;;1.23;;
75090;SDS011;63674;48.048;8.306;2024-03-22T11:39:03;4.30;;;1.35;;
75090;SDS011;63674;48.048;8.306;2024-03-22T11:41:31;4.10;;;1.20;;
75090;SDS011;63674;48.048;8.306;2024-03-22T11:43:58;4.05;;;1.33;;
75090;SDS011;63674;48.048;8.306;2024-03-22T11:46:27;6.07;;;1.50;;
75090;SDS011;63674;48.048;8.306;2024-03-22T11:48:55;4.72;;;1.10;;
75090;SDS011;63674;48.048;8.306;2024-03-22T11:51:23;7.47;;;1.17;;
75090;SDS011;63674;48.048;8.306;2024-03-22T11:53:50;4.65;;;1.10;;
75090;SDS011;63674;48.048;8.306;2024-03-22T11:56:19;5.07;;;1.33;;
75090;SDS011;63674;48.048;8.306;2024-03-22T11:58:46;3.70;;;1.03;;
75090;SDS011;63674;48.048;8.306;2024-03-22T12:01:14;5.38;;;1.30;;
75090;SDS011;63674;48.048;8.306;2024-03-22T12:03:44;5.63;;;1.17;;
75090;SDS011;63674;48.048;8.306;2024-03-22T12:06:12;3.95;;;1.00;;
75090;SDS011;63674;48.048;8.306;2024-03-22T12:08:40;6.47;;;1.45;;
75090;SDS011;63674;48.048;8.306;2024-03-22T12:11:08;4.67;;;1.20;;
75090;SDS011;63674;48.048;8.306;2024-03-22T12:13:37;4.78;;;1.00;;
75090;SDS011;63674;48.048;8.306;2024-03-22T12:16:05;4.82;;;1.23;;
75090;SDS011;63674;48.048;8.306;2024-03-22T12:18:32;4.57;;;1.00;;
75090;SDS011;63674;48.048;8.306;2024-03-22T12:21:02;5.40;;;0.90;;
75090;SDS011;63674;48.048;8.306;2024-03-22T12:23:29;3.90;;;1.00;;
75090;SDS011;63674;48.048;8.306;2024-03-22T12:25:56;4.10;;;1.10;;
75090;SDS011;63674;48.048;8.306;2024-03-22T12:28:23;5.10;;;1.00;;
75090;SDS011;63674;48.048;8.306;2024-03-22T12:30:50;5.38;;;1.20;;
75090;SDS011;63674;48.048;8.306;2024-03-22T12:33:17;5.15;;;0.90;;
75090;SDS011;63674;48.048;8.306;2024-03-22T12:35:45;3.97;;;1.00;;
75090;SDS011;63674;48.048;8.306;2024-03-22T12:38:13;4.57;;;1.10;;
75090;SDS011;63674;48.048;8.306;2024-03-22T12:40:41;4.25;;;1.15;;
75090;SDS011;63674;48.048;8.306;2024-03-22T12:43:09;4.15;;;1.10;;
75090;SDS011;63674;48.048;8.306;2024-03-22T12:45:37;3.90;;;1.30;;
75090;SDS011;63674;48.048;8.306;2024-03-22T12:48:04;4.27;;;1.40;;
75090;SDS011;63674;48.048;8.306;2024-03-22T12:50:32;4.10;;;1.30;;
75090;SDS011;63674;48.048;8.306;2024-03-22T12:52:59;4.07;;;1.23;;
75090;SDS011;63674;48.048;8.306;2024-03-22T12:55:28;4.45;;;1.25;;
75090;SDS011;63674;48.048;8.306;2024-03-22T12:57:56;5.28;;;1.30;;
75090;SDS011;63674;48.048;8.306;2024-03-22T13:00:24;4.70;;;1.47;;
75090;SDS011;63674;48.048;8.306;2024-03-22T13:02:50;4.57;;;1.50;;
75090;SDS011;63674;48.048;8.306;2024-03-22T13:05:18;5.40;;;1.50;;
75090;SDS011;63674;48.048;8.306;2024-03-22T13:07:45;4.35;;;1.52;;
75090;SDS011;63674;48.048;8.306;2024-03-22T13:10:12;8.90;;;1.50;;
75090;SDS011;63674;48.048;8.306;2024-03-22T13:12:40;4.93;;;1.40;;
75090;SDS011;63674;48.048;8.306;2024-03-22T13:15:08;4.57;;;1.40;;
75090;SDS011;63674;48.048;8.306;2024-03-22T13:17:35;5.35;;;1.77;;
75090;SDS011;63674;48.048;8.306;2024-03-22T13:20:02;7.15;;;1.40;;
75090;SDS011;63674;48.048;8.306;2024-03-22T13:22:35;4.32;;;1.33;;
75090;SDS011;63674;48.048;8.306;2024-03-22T13:25:04;5.00;;;1.40;;
75090;SDS011;63674;48.048;8.306;2024-03-22T13:27:32;4.03;;;1.30;;
75090;SDS011;63674;48.048;8.306;2024-03-22T13:30:02;5.13;;;1.20;;
75090;SDS011;63674;48.048;8.306;2024-03-22T13:32:30;3.70;;;1.20;;
75090;SDS011;63674;48.048;8.306;2024-03-22T13:34:58;3.20;;;0.90;;
75090;SDS011;63674;48.048;8.306;2024-03-22T13:37:24;3.70;;;1.00;;
75090;SDS011;63674;48.048;8.306;2024-03-22T13:39:52;4.32;;;1.20;;
75090;SDS011;63674;48.048;8.306;2024-03-22T13:42:19;3.78;;;1.27;;
75090;SDS011;63674;48.048;8.306;2024-03-22T13:44:46;4.35;;;1.50;;
75090;SDS011;63674;48.048;8.306;2024-03-22T13:47:14;5.05;;;1.55;;
75090;SDS011;63674;48.048;8.306;2024-03-22T13:49:43;4.43;;;1.27;;
75090;SDS011;63674;48.048;8.306;2024-03-22T13:52:10;4.30;;;1.20;;
75090;SDS011;63674;48.048;8.306;2024-03-22T13:54:37;4.00;;;1.38;;
75090;SDS011;63674;48.048;8.306;2024-03-22T13:57:04;3.92;;;1.38;;
75090;SDS011;63674;48.048;8.306;2024-03-22T13:59:32;3.83;;;1.13;;
75090;SDS011;63674;48.048;8.306;2024-03-22T14:01:59;4.60;;;1.20;;
75090;SDS011;63674;48.048;8.306;2024-03-22T14:04:30;4.97;;;1.30;;
75090;SDS011;63674;48.048;8.306;2024-03-22T14:06:56;4.85;;;1.33;;
75090;SDS011;63674;48.048;8.306;2024-03-22T14:09:24;3.85;;;1.20;;
75090;SDS011;63674;48.048;8.306;2024-03-22T14:11:51;4.00;;;1.20;;
75090;SDS011;63674;48.048;8.306;2024-03-22T14:14:19;4.97;;;1.00;;
75090;SDS011;63674;48.048;8.306;2024-03-22T14:16:45;4.40;;;1.08;;
75090;SDS011;63674;48.048;8.306;2024-03-22T14:19:13;3.97;;;1.05;;
75090;SDS011;63674;48.048;8.306;2024-03-22T14:21:42;4.28;;;0.90;;
75090;SDS011;63674;48.048;8.306;2024-03-22T14:24:08;5.60;;;1.20;;
75090;SDS011;63674;48.048;8.306;2024-03-22T14:26:37;3.40;;;0.77;;
75090;SDS011;63674;48.048;8.306;2024-03-22T14:29:07;3.50;;;1.00;;
75090;SDS011;63674;48.048;8.306;2024-03-22T14:31:35;4.45;;;1.48;;
75090;SDS011;63674;48.048;8.306;2024-03-22T14:34:02;7.35;;;2.30;;
75090;SDS011;63674;48.048;8.306;2024-03-22T14:36:31;3.60;;;1.00;;
75090;SDS011;63674;48.048;8.306;2024-03-22T14:39:00;4.17;;;1.10;;
75090;SDS011;63674;48.048;8.306;2024-03-22T14:41:30;3.10;;;0.70;;
75090;SDS011;63674;48.048;8.306;2024-03-22T14:43:57;3.05;;;0.82;;
75090;SDS011;63674;48.048;8.306;2024-03-22T14:46:24;3.00;;;0.63;;
75090;SDS011;63674;48.048;8.306;2024-03-22T14:48:53;3.40;;;0.90;;
75090;SDS011;63674;48.048;8.306;2024-03-22T14:51:21;3.80;;;0.80;;
75090;SDS011;63674;48.048;8.306;2024-03-22T14:53:48;3.97;;;0.90;;
75090;SDS011;63674;48.048;8.306;2024-03-22T14:56:17;4.70;;;0.80;;
75090;SDS011;63674;48.048;8.306;2024-03-22T14:58:44;3.88;;;0.90;;
75090;SDS011;63674;48.048;8.306;2024-03-22T15:01:11;3.13;;;0.85;;
75090;SDS011;63674;48.048;8.306;2024-03-22T15:03:38;4.00;;;1.20;;